sensor_id;sensor_type;location;lat;lon;timestamp;temperature;humidity
7530;DHT22;3806;52.270;10.544;2023-05-08T00:00:18;10.30;99.90
7530;DHT22;3806;52.270;10.544;2023-05-08T00:02:43;10.20;99.90
7530;DHT22;3806;52.270;10.544;2023-05-08T00:05:09;10.20;99.90
7530;DHT22;3806;52.270;10.544;2023-05-08T00:07:35;10.20;99.90
7530;DHT22;3806;52.270;10.544;2023-05-08T00:10:02;10.20;99.90
7530;DHT22;3806;52.270;10.544;2023-05-08T00:12:28;10.30;99.90
7530;DHT22;3806;52.270;10.544;2023-05-08T00:14:54;10.30;99.90
7530;DHT22;3806;52.270;10.544;2023-05-08T00:17:19;10.20;99.90
7530;DHT22;3806;52.270;10.544;2023-05-08T00:19:45;10.10;99.90
7530;DHT22;3806;52.270;10.544;2023-05-08T00:22:10;10.10;99.90
7530;DHT22;3806;52.270;10.544;2023-05-08T00:24:36;10.10;99.90
7530;DHT22;3806;52.270;10.544;2023-05-08T00:27:01;10.10;99.90
7530;DHT22;3806;52.270;10.544;2023-05-08T00:29:27;10.10;99.90
7530;DHT22;3806;52.270;10.544;2023-05-08T00:31:53;10.10;99.90
7530;DHT22;3806;52.270;10.544;2023-05-08T00:34:18;9.90;99.90
7530;DHT22;3806;52.270;10.544;2023-05-08T00:36:44;9.90;99.90
7530;DHT22;3806;52.270;10.544;2023-05-08T00:39:09;10.00;99.90
7530;DHT22;3806;52.270;10.544;2023-05-08T00:41:35;9.90;99.90
7530;DHT22;3806;52.270;10.544;2023-05-08T00:44:01;9.90;99.90
7530;DHT22;3806;52.270;10.544;2023-05-08T00:46:26;9.90;99.90
7530;DHT22;3806;52.270;10.544;2023-05-08T00:48:52;9.90;99.90
7530;DHT22;3806;52.270;10.544;2023-05-08T00:51:18;9.80;99.90
7530;DHT22;3806;52.270;10.544;2023-05-08T00:53:44;9.80;99.90
7530;DHT22;3806;52.270;10.544;2023-05-08T00:56:12;9.70;99.90
7530;DHT22;3806;52.270;10.544;2023-05-08T00:58:38;9.70;99.90
7530;DHT22;3806;52.270;10.544;2023-05-08T01:01:04;9.70;99.90
7530;DHT22;3806;52.270;10.544;2023-05-08T01:03:31;9.70;99.90
7530;DHT22;3806;52.270;10.544;2023-05-08T01:05:58;9.70;99.90
7530;DHT22;3806;52.270;10.544;2023-05-08T01:08:24;9.70;99.90
7530;DHT22;3806;52.270;10.544;2023-05-08T01:11:11;9.60;99.90
7530;DHT22;3806;52.270;10.544;2023-05-08T01:14:02;9.60;99.90
7530;DHT22;3806;52.270;10.544;2023-05-08T01:28:20;9.40;99.90
7530;DHT22;3806;52.270;10.544;2023-05-08T01:33:44;9.50;99.90
7530;DHT22;3806;52.270;10.544;2023-05-08T01:36:19;9.40;99.90
7530;DHT22;3806;52.270;10.544;2023-05-08T01:41:33;9.20;99.90
7530;DHT22;3806;52.270;10.544;2023-05-08T01:44:18;9.20;99.90
7530;DHT22;3806;52.270;10.544;2023-05-08T01:46:48;9.20;99.90
7530;DHT22;3806;52.270;10.544;2023-05-08T01:49:31;9.20;99.90
7530;DHT22;3806;52.270;10.544;2023-05-08T01:52:02;9.10;99.90
7530;DHT22;3806;52.270;10.544;2023-05-08T01:54:35;9.00;99.90
7530;DHT22;3806;52.270;10.544;2023-05-08T01:57:03;9.00;99.90
7530;DHT22;3806;52.270;10.544;2023-05-08T01:59:30;9.00;99.90
7530;DHT22;3806;52.270;10.544;2023-05-08T02:01:57;8.90;99.90
7530;DHT22;3806;52.270;10.544;2023-05-08T02:04:25;9.00;99.90
7530;DHT22;3806;52.270;10.544;2023-05-08T02:06:52;9.00;99.90
7530;DHT22;3806;52.270;10.544;2023-05-08T02:09:20;9.00;99.90
7530;DHT22;3806;52.270;10.544;2023-05-08T02:11:47;8.90;99.90
7530;DHT22;3806;52.270;10.544;2023-05-08T02:14:14;8.90;99.90
7530;DHT22;3806;52.270;10.544;2023-05-08T02:16:43;8.90;99.90
7530;DHT22;3806;52.270;10.544;2023-05-08T02:19:09;8.90;99.90
7530;DHT22;3806;52.270;10.544;2023-05-08T02:21:36;8.80;99.90
7530;DHT22;3806;52.270;10.544;2023-05-08T02:24:03;8.90;99.90
7530;DHT22;3806;52.270;10.544;2023-05-08T02:26:31;8.90;99.90
7530;DHT22;3806;52.270;10.544;2023-05-08T02:28:57;8.90;99.90
7530;DHT22;3806;52.270;10.544;2023-05-08T02:31:24;8.80;99.90
7530;DHT22;3806;52.270;10.544;2023-05-08T02:33:50;8.80;99.90
7530;DHT22;3806;52.270;10.544;2023-05-08T02:36:17;8.80;99.90
7530;DHT22;3806;52.270;10.544;2023-05-08T02:38:46;8.70;99.90
7530;DHT22;3806;52.270;10.544;2023-05-08T02:41:14;8.70;99.90
7530;DHT22;3806;52.270;10.544;2023-05-08T02:43:42;8.70;99.90
7530;DHT22;3806;52.270;10.544;2023-05-08T02:46:18;8.70;99.90
7530;DHT22;3806;52.270;10.544;2023-05-08T02:51:59;8.70;99.90
7530;DHT22;3806;52.270;10.544;2023-05-08T02:54:41;8.70;99.90
7530;DHT22;3806;52.270;10.544;2023-05-08T02:57:49;8.60;99.90
7530;DHT22;3806;52.270;10.544;2023-05-08T03:00:22;8.60;99.90
7530;DHT22;3806;52.270;10.544;2023-05-08T03:03:24;8.60;99.90
7530;DHT22;3806;52.270;10.544;2023-05-08T03:05:53;8.60;99.90
7530;DHT22;3806;52.270;10.544;2023-05-08T03:08:31;8.50;99.90
7530;DHT22;3806;52.270;10.544;2023-05-08T03:11:02;8.50;99.90
7530;DHT22;3806;52.270;10.544;2023-05-08T03:13:31;8.60;99.90
7530;DHT22;3806;52.270;10.544;2023-05-08T03:16:00;8.50;99.90
7530;DHT22;3806;52.270;10.544;2023-05-08T03:18:42;8.50;99.90
7530;DHT22;3806;52.270;10.544;2023-05-08T03:21:10;8.50;99.90
7530;DHT22;3806;52.270;10.544;2023-05-08T03:23:38;8.50;99.90
7530;DHT22;3806;52.270;10.544;2023-05-08T03:26:05;8.50;99.90
7530;DHT22;3806;52.270;10.544;2023-05-08T03:28:32;8.60;99.90
7530;DHT22;3806;52.270;10.544;2023-05-08T03:31:00;8.50;99.90
7530;DHT22;3806;52.270;10.544;2023-05-08T03:33:27;8.50;99.90
7530;DHT22;3806;52.270;10.544;2023-05-08T03:35:55;8.40;99.90
7530;DHT22;3806;52.270;10.544;2023-05-08T03:38:22;8.50;99.90
7530;DHT22;3806;52.270;10.544;2023-05-08T03:40:48;8.50;99.90
7530;DHT22;3806;52.270;10.544;2023-05-08T03:43:14;8.50;99.90
7530;DHT22;3806;52.270;10.544;2023-05-08T03:45:40;8.50;99.90
7530;DHT22;3806;52.270;10.544;2023-05-08T03:48:07;8.60;99.90
7530;DHT22;3806;52.270;10.544;2023-05-08T03:50:35;8.50;99.90
7530;DHT22;3806;52.270;10.544;2023-05-08T03:53:01;8.60;99.90
7530;DHT22;3806;52.270;10.544;2023-05-08T03:55:27;8.60;99.90
7530;DHT22;3806;52.270;10.544;2023-05-08T04:01:02;8.60;99.90
7530;DHT22;3806;52.270;10.544;2023-05-08T04:03:38;8.60;99.90
7530;DHT22;3806;52.270;10.544;2023-05-08T04:06:28;8.60;99.90
7530;DHT22;3806;52.270;10.544;2023-05-08T04:11:40;8.70;99.90
7530;DHT22;3806;52.270;10.544;2023-05-08T04:14:09;8.80;99.90
7530;DHT22;3806;52.270;10.544;2023-05-08T04:16:40;8.90;99.90
7530;DHT22;3806;52.270;10.544;2023-05-08T04:19:14;8.90;99.90
7530;DHT22;3806;52.270;10.544;2023-05-08T04:21:43;8.90;99.90
7530;DHT22;3806;52.270;10.544;2023-05-08T04:24:12;9.00;99.90
7530;DHT22;3806;52.270;10.544;2023-05-08T04:26:39;9.10;99.90
7530;DHT22;3806;52.270;10.544;2023-05-08T04:29:05;9.20;99.90
7530;DHT22;3806;52.270;10.544;2023-05-08T04:31:33;9.30;99.90
7530;DHT22;3806;52.270;10.544;2023-05-08T04:33:59;9.40;99.90
7530;DHT22;3806;52.270;10.544;2023-05-08T04:36:25;9.40;99.90
7530;DHT22;3806;52.270;10.544;2023-05-08T04:38:53;9.40;99.90
7530;DHT22;3806;52.270;10.544;2023-05-08T04:41:19;9.50;99.90
7530;DHT22;3806;52.270;10.544;2023-05-08T04:43:46;9.50;99.90
7530;DHT22;3806;52.270;10.544;2023-05-08T04:46:11;9.60;99.90
7530;DHT22;3806;52.270;10.544;2023-05-08T04:48:37;9.70;99.90
7530;DHT22;3806;52.270;10.544;2023-05-08T04:51:03;9.80;99.90
7530;DHT22;3806;52.270;10.544;2023-05-08T04:53:28;10.00;99.90
7530;DHT22;3806;52.270;10.544;2023-05-08T04:55:54;10.20;99.90
7530;DHT22;3806;52.270;10.544;2023-05-08T04:58:19;10.60;99.90
7530;DHT22;3806;52.270;10.544;2023-05-08T05:00:45;11.30;99.90
7530;DHT22;3806;52.270;10.544;2023-05-08T05:03:10;12.10;99.30
7530;DHT22;3806;52.270;10.544;2023-05-08T05:05:36;13.00;97.30
7530;DHT22;3806;52.270;10.544;2023-05-08T05:08:01;13.50;95.30
7530;DHT22;3806;52.270;10.544;2023-05-08T05:10:28;13.90;94.20
7530;DHT22;3806;52.270;10.544;2023-05-08T05:12:54;14.30;92.90
7530;DHT22;3806;52.270;10.544;2023-05-08T05:15:19;15.10;91.90
7530;DHT22;3806;52.270;10.544;2023-05-08T05:17:45;16.00;89.80
7530;DHT22;3806;52.270;10.544;2023-05-08T05:20:10;16.90;83.50
7530;DHT22;3806;52.270;10.544;2023-05-08T05:22:36;17.50;77.00
7530;DHT22;3806;52.270;10.544;2023-05-08T05:25:02;18.00;74.00
7530;DHT22;3806;52.270;10.544;2023-05-08T05:27:28;18.40;70.40
7530;DHT22;3806;52.270;10.544;2023-05-08T05:29:53;18.90;67.30
7530;DHT22;3806;52.270;10.544;2023-05-08T05:32:19;19.20;63.20
7530;DHT22;3806;52.270;10.544;2023-05-08T05:34:45;19.10;60.30
7530;DHT22;3806;52.270;10.544;2023-05-08T05:37:11;18.80;60.40
7530;DHT22;3806;52.270;10.544;2023-05-08T05:39:37;18.80;59.30
7530;DHT22;3806;52.270;10.544;2023-05-08T05:42:03;18.80;58.60
7530;DHT22;3806;52.270;10.544;2023-05-08T05:44:29;18.60;57.30
7530;DHT22;3806;52.270;10.544;2023-05-08T05:46:55;18.40;57.60
7530;DHT22;3806;52.270;10.544;2023-05-08T05:49:21;18.20;56.90
7530;DHT22;3806;52.270;10.544;2023-05-08T05:51:46;18.00;56.90
7530;DHT22;3806;52.270;10.544;2023-05-08T05:54:12;17.70;57.60
7530;DHT22;3806;52.270;10.544;2023-05-08T05:56:38;17.70;58.00
7530;DHT22;3806;52.270;10.544;2023-05-08T05:59:04;17.90;57.30
7530;DHT22;3806;52.270;10.544;2023-05-08T06:01:29;17.80;57.10
7530;DHT22;3806;52.270;10.544;2023-05-08T06:03:55;17.50;57.50
7530;DHT22;3806;52.270;10.544;2023-05-08T06:06:21;17.10;58.60
7530;DHT22;3806;52.270;10.544;2023-05-08T06:08:47;16.80;59.00
7530;DHT22;3806;52.270;10.544;2023-05-08T06:11:12;16.40;60.30
7530;DHT22;3806;52.270;10.544;2023-05-08T06:13:39;16.20;61.30
7530;DHT22;3806;52.270;10.544;2023-05-08T06:16:06;16.00;62.00
7530;DHT22;3806;52.270;10.544;2023-05-08T06:18:32;15.90;63.40
7530;DHT22;3806;52.270;10.544;2023-05-08T06:20:58;15.80;64.10
7530;DHT22;3806;52.270;10.544;2023-05-08T06:23:24;15.60;65.00
7530;DHT22;3806;52.270;10.544;2023-05-08T06:25:51;15.50;65.60
7530;DHT22;3806;52.270;10.544;2023-05-08T06:28:17;15.30;66.60
7530;DHT22;3806;52.270;10.544;2023-05-08T06:30:43;15.30;67.10
7530;DHT22;3806;52.270;10.544;2023-05-08T06:33:08;15.30;67.30
7530;DHT22;3806;52.270;10.544;2023-05-08T06:35:34;15.40;67.90
7530;DHT22;3806;52.270;10.544;2023-05-08T06:38:00;15.50;67.60
7530;DHT22;3806;52.270;10.544;2023-05-08T06:40:26;15.70;66.70
7530;DHT22;3806;52.270;10.544;2023-05-08T06:42:51;15.80;66.40
7530;DHT22;3806;52.270;10.544;2023-05-08T06:45:17;16.30;65.40
7530;DHT22;3806;52.270;10.544;2023-05-08T06:47:42;17.00;63.10
7530;DHT22;3806;52.270;10.544;2023-05-08T06:50:08;17.80;60.10
7530;DHT22;3806;52.270;10.544;2023-05-08T06:52:34;18.60;58.20
7530;DHT22;3806;52.270;10.544;2023-05-08T06:55:00;19.60;55.50
7530;DHT22;3806;52.270;10.544;2023-05-08T06:57:25;20.60;52.40
7530;DHT22;3806;52.270;10.544;2023-05-08T06:59:53;21.50;48.50
7530;DHT22;3806;52.270;10.544;2023-05-08T07:02:19;21.90;47.10
7530;DHT22;3806;52.270;10.544;2023-05-08T07:04:44;22.40;45.40
7530;DHT22;3806;52.270;10.544;2023-05-08T07:07:10;22.80;44.00
7530;DHT22;3806;52.270;10.544;2023-05-08T07:09:37;23.30;44.00
7530;DHT22;3806;52.270;10.544;2023-05-08T07:12:02;24.00;41.90
7530;DHT22;3806;52.270;10.544;2023-05-08T07:14:28;24.30;40.70
7530;DHT22;3806;52.270;10.544;2023-05-08T07:16:53;24.70;39.50
7530;DHT22;3806;52.270;10.544;2023-05-08T07:19:19;24.90;38.20
7530;DHT22;3806;52.270;10.544;2023-05-08T07:21:45;24.70;37.80
7530;DHT22;3806;52.270;10.544;2023-05-08T07:24:10;24.40;37.50
7530;DHT22;3806;52.270;10.544;2023-05-08T07:26:36;23.70;38.00
7530;DHT22;3806;52.270;10.544;2023-05-08T07:29:02;23.10;39.10
7530;DHT22;3806;52.270;10.544;2023-05-08T07:31:28;23.00;39.40
7530;DHT22;3806;52.270;10.544;2023-05-08T07:33:53;22.90;40.30
7530;DHT22;3806;52.270;10.544;2023-05-08T07:36:19;22.90;39.60
7530;DHT22;3806;52.270;10.544;2023-05-08T07:38:44;22.60;39.80
7530;DHT22;3806;52.270;10.544;2023-05-08T07:41:10;22.10;40.00
7530;DHT22;3806;52.270;10.544;2023-05-08T07:43:36;21.60;40.80
7530;DHT22;3806;52.270;10.544;2023-05-08T07:46:01;21.20;41.80
7530;DHT22;3806;52.270;10.544;2023-05-08T07:48:27;21.10;42.00
7530;DHT22;3806;52.270;10.544;2023-05-08T07:50:53;21.10;42.30
7530;DHT22;3806;52.270;10.544;2023-05-08T07:53:18;20.80;42.80
7530;DHT22;3806;52.270;10.544;2023-05-08T07:55:44;20.80;43.50
7530;DHT22;3806;52.270;10.544;2023-05-08T07:58:09;21.00;43.70
7530;DHT22;3806;52.270;10.544;2023-05-08T08:00:35;21.30;43.30
7530;DHT22;3806;52.270;10.544;2023-05-08T08:03:01;21.30;42.20
7530;DHT22;3806;52.270;10.544;2023-05-08T08:05:27;21.10;42.80
7530;DHT22;3806;52.270;10.544;2023-05-08T08:07:53;21.00;43.00
7530;DHT22;3806;52.270;10.544;2023-05-08T08:10:19;20.80;43.60
7530;DHT22;3806;52.270;10.544;2023-05-08T08:12:44;20.70;43.80
7530;DHT22;3806;52.270;10.544;2023-05-08T08:15:10;20.60;43.90
7530;DHT22;3806;52.270;10.544;2023-05-08T08:17:36;20.30;44.60
7530;DHT22;3806;52.270;10.544;2023-05-08T08:20:02;20.20;44.80
7530;DHT22;3806;52.270;10.544;2023-05-08T08:22:28;20.30;45.20
7530;DHT22;3806;52.270;10.544;2023-05-08T08:24:54;20.60;45.10
7530;DHT22;3806;52.270;10.544;2023-05-08T08:27:20;20.90;44.50
7530;DHT22;3806;52.270;10.544;2023-05-08T08:29:45;21.10;44.10
7530;DHT22;3806;52.270;10.544;2023-05-08T08:32:11;21.30;43.40
7530;DHT22;3806;52.270;10.544;2023-05-08T08:34:37;21.30;43.00
7530;DHT22;3806;52.270;10.544;2023-05-08T08:37:04;21.40;43.10
7530;DHT22;3806;52.270;10.544;2023-05-08T08:39:34;21.50;43.20
7530;DHT22;3806;52.270;10.544;2023-05-08T08:42:00;21.70;43.30
7530;DHT22;3806;52.270;10.544;2023-05-08T08:44:26;21.80;42.90
7530;DHT22;3806;52.270;10.544;2023-05-08T08:46:52;21.90;42.70
7530;DHT22;3806;52.270;10.544;2023-05-08T08:49:34;21.90;42.00
7530;DHT22;3806;52.270;10.544;2023-05-08T08:52:12;21.70;42.50
7530;DHT22;3806;52.270;10.544;2023-05-08T08:54:41;21.80;43.10
7530;DHT22;3806;52.270;10.544;2023-05-08T08:57:08;21.90;41.50
7530;DHT22;3806;52.270;10.544;2023-05-08T08:59:37;22.10;41.20
7530;DHT22;3806;52.270;10.544;2023-05-08T09:02:11;22.30;40.80
7530;DHT22;3806;52.270;10.544;2023-05-08T09:04:37;22.50;39.20
7530;DHT22;3806;52.270;10.544;2023-05-08T09:07:03;22.50;39.80
7530;DHT22;3806;52.270;10.544;2023-05-08T09:09:33;22.50;40.50
7530;DHT22;3806;52.270;10.544;2023-05-08T09:12:00;22.60;40.80
7530;DHT22;3806;52.270;10.544;2023-05-08T09:14:26;22.70;40.10
7530;DHT22;3806;52.270;10.544;2023-05-08T09:16:54;22.80;39.60
7530;DHT22;3806;52.270;10.544;2023-05-08T09:19:20;22.90;40.40
7530;DHT22;3806;52.270;10.544;2023-05-08T09:21:48;22.90;40.60
7530;DHT22;3806;52.270;10.544;2023-05-08T09:24:13;22.80;40.00
7530;DHT22;3806;52.270;10.544;2023-05-08T09:26:40;22.60;40.40
7530;DHT22;3806;52.270;10.544;2023-05-08T09:29:18;22.50;40.70
7530;DHT22;3806;52.270;10.544;2023-05-08T09:31:46;22.20;40.80
7530;DHT22;3806;52.270;10.544;2023-05-08T09:34:24;22.10;41.00
7530;DHT22;3806;52.270;10.544;2023-05-08T09:36:51;22.20;41.40
7530;DHT22;3806;52.270;10.544;2023-05-08T09:39:24;22.10;42.10
7530;DHT22;3806;52.270;10.544;2023-05-08T09:42:01;22.10;42.50
7530;DHT22;3806;52.270;10.544;2023-05-08T09:44:27;22.20;42.20
7530;DHT22;3806;52.270;10.544;2023-05-08T09:47:09;22.10;41.00
7530;DHT22;3806;52.270;10.544;2023-05-08T09:49:35;22.00;41.70
7530;DHT22;3806;52.270;10.544;2023-05-08T09:52:02;21.80;42.20
7530;DHT22;3806;52.270;10.544;2023-05-08T09:54:27;21.80;40.50
7530;DHT22;3806;52.270;10.544;2023-05-08T09:56:53;21.50;40.80
7530;DHT22;3806;52.270;10.544;2023-05-08T09:59:27;21.40;41.00
7530;DHT22;3806;52.270;10.544;2023-05-08T10:01:54;21.20;41.30
7530;DHT22;3806;52.270;10.544;2023-05-08T10:04:36;21.10;41.30
7530;DHT22;3806;52.270;10.544;2023-05-08T10:07:02;20.90;41.80
7530;DHT22;3806;52.270;10.544;2023-05-08T10:09:28;20.80;42.40
7530;DHT22;3806;52.270;10.544;2023-05-08T10:11:55;20.80;42.60
7530;DHT22;3806;52.270;10.544;2023-05-08T10:14:21;20.60;42.30
7530;DHT22;3806;52.270;10.544;2023-05-08T10:16:52;20.30;42.80
7530;DHT22;3806;52.270;10.544;2023-05-08T10:19:20;20.10;43.40
7530;DHT22;3806;52.270;10.544;2023-05-08T10:21:51;20.00;43.60
7530;DHT22;3806;52.270;10.544;2023-05-08T10:24:25;19.90;44.60
7530;DHT22;3806;52.270;10.544;2023-05-08T10:27:22;20.10;44.20
7530;DHT22;3806;52.270;10.544;2023-05-08T10:29:55;20.20;43.60
7530;DHT22;3806;52.270;10.544;2023-05-08T10:32:24;20.40;43.80
7530;DHT22;3806;52.270;10.544;2023-05-08T10:35:02;20.50;43.90
7530;DHT22;3806;52.270;10.544;2023-05-08T10:37:29;20.60;44.20
7530;DHT22;3806;52.270;10.544;2023-05-08T10:39:56;20.80;44.70
7530;DHT22;3806;52.270;10.544;2023-05-08T10:42:22;21.10;44.70
7530;DHT22;3806;52.270;10.544;2023-05-08T10:44:48;21.30;43.90
7530;DHT22;3806;52.270;10.544;2023-05-08T10:50:15;21.40;44.00
7530;DHT22;3806;52.270;10.544;2023-05-08T10:52:51;21.20;43.30
7530;DHT22;3806;52.270;10.544;2023-05-08T10:58:07;20.90;43.80
7530;DHT22;3806;52.270;10.544;2023-05-08T11:03:15;20.80;44.30
7530;DHT22;3806;52.270;10.544;2023-05-08T11:05:48;20.80;44.40
7530;DHT22;3806;52.270;10.544;2023-05-08T11:08:19;20.60;44.10
7530;DHT22;3806;52.270;10.544;2023-05-08T11:10:51;20.60;43.60
7530;DHT22;3806;52.270;10.544;2023-05-08T11:13:28;20.30;44.10
7530;DHT22;3806;52.270;10.544;2023-05-08T11:15:55;20.30;45.30
7530;DHT22;3806;52.270;10.544;2023-05-08T11:18:21;20.40;45.70
7530;DHT22;3806;52.270;10.544;2023-05-08T11:21:00;20.50;46.10
7530;DHT22;3806;52.270;10.544;2023-05-08T11:23:40;20.60;45.70
7530;DHT22;3806;52.270;10.544;2023-05-08T11:26:11;20.70;44.40
7530;DHT22;3806;52.270;10.544;2023-05-08T11:28:38;20.70;44.80
7530;DHT22;3806;52.270;10.544;2023-05-08T11:31:06;20.70;45.20
7530;DHT22;3806;52.270;10.544;2023-05-08T11:33:35;20.90;44.70
7530;DHT22;3806;52.270;10.544;2023-05-08T11:38:40;20.90;43.80
7530;DHT22;3806;52.270;10.544;2023-05-08T11:41:21;20.80;43.20
7530;DHT22;3806;52.270;10.544;2023-05-08T11:46:53;20.80;43.20
7530;DHT22;3806;52.270;10.544;2023-05-08T11:49:22;20.90;43.40
7530;DHT22;3806;52.270;10.544;2023-05-08T11:51:49;20.90;43.10
7530;DHT22;3806;52.270;10.544;2023-05-08T11:54:19;20.90;43.00
7530;DHT22;3806;52.270;10.544;2023-05-08T11:56:46;20.90;43.70
7530;DHT22;3806;52.270;10.544;2023-05-08T11:59:12;20.90;42.70
7530;DHT22;3806;52.270;10.544;2023-05-08T12:01:38;20.70;43.10
7530;DHT22;3806;52.270;10.544;2023-05-08T12:04:05;20.60;43.70
7530;DHT22;3806;52.270;10.544;2023-05-08T12:06:33;20.60;43.90
7530;DHT22;3806;52.270;10.544;2023-05-08T12:09:00;20.60;44.40
7530;DHT22;3806;52.270;10.544;2023-05-08T12:11:26;20.60;44.30
7530;DHT22;3806;52.270;10.544;2023-05-08T12:13:53;20.60;44.80
7530;DHT22;3806;52.270;10.544;2023-05-08T12:16:19;20.70;45.00
7530;DHT22;3806;52.270;10.544;2023-05-08T12:18:48;20.70;44.80
7530;DHT22;3806;52.270;10.544;2023-05-08T12:21:14;20.70;44.60
7530;DHT22;3806;52.270;10.544;2023-05-08T12:23:40;20.60;45.00
7530;DHT22;3806;52.270;10.544;2023-05-08T12:26:07;20.60;44.50
7530;DHT22;3806;52.270;10.544;2023-05-08T12:28:33;20.50;44.90
7530;DHT22;3806;52.270;10.544;2023-05-08T12:30:59;20.60;44.70
7530;DHT22;3806;52.270;10.544;2023-05-08T12:33:25;20.60;44.30
7530;DHT22;3806;52.270;10.544;2023-05-08T12:35:51;20.60;44.40
7530;DHT22;3806;52.270;10.544;2023-05-08T12:38:17;20.50;44.30
7530;DHT22;3806;52.270;10.544;2023-05-08T12:40:46;20.50;44.00
7530;DHT22;3806;52.270;10.544;2023-05-08T12:43:17;20.40;44.80
7530;DHT22;3806;52.270;10.544;2023-05-08T12:45:43;20.30;44.50
7530;DHT22;3806;52.270;10.544;2023-05-08T12:48:11;20.30;44.30
7530;DHT22;3806;52.270;10.544;2023-05-08T12:50:44;20.20;44.50
7530;DHT22;3806;52.270;10.544;2023-05-08T12:53:11;20.20;44.50
7530;DHT22;3806;52.270;10.544;2023-05-08T12:55:38;20.20;44.40
7530;DHT22;3806;52.270;10.544;2023-05-08T12:58:12;20.20;44.40
7530;DHT22;3806;52.270;10.544;2023-05-08T13:00:41;20.20;44.80
7530;DHT22;3806;52.270;10.544;2023-05-08T13:03:09;20.30;44.90
7530;DHT22;3806;52.270;10.544;2023-05-08T13:05:39;20.20;44.10
7530;DHT22;3806;52.270;10.544;2023-05-08T13:08:07;20.20;44.70
7530;DHT22;3806;52.270;10.544;2023-05-08T13:10:52;20.10;45.10
7530;DHT22;3806;52.270;10.544;2023-05-08T13:13:19;20.10;45.30
7530;DHT22;3806;52.270;10.544;2023-05-08T13:15:46;20.10;45.30
7530;DHT22;3806;52.270;10.544;2023-05-08T13:18:12;20.10;45.50
7530;DHT22;3806;52.270;10.544;2023-05-08T13:20:40;20.10;45.60
7530;DHT22;3806;52.270;10.544;2023-05-08T13:23:06;20.00;45.30
7530;DHT22;3806;52.270;10.544;2023-05-08T13:25:32;20.00;45.90
7530;DHT22;3806;52.270;10.544;2023-05-08T13:27:59;19.90;46.30
7530;DHT22;3806;52.270;10.544;2023-05-08T13:30:24;19.90;46.20
7530;DHT22;3806;52.270;10.544;2023-05-08T13:32:50;20.00;45.30
7530;DHT22;3806;52.270;10.544;2023-05-08T13:35:17;20.00;45.30
7530;DHT22;3806;52.270;10.544;2023-05-08T13:37:43;20.00;45.60
7530;DHT22;3806;52.270;10.544;2023-05-08T13:40:09;20.10;45.60
7530;DHT22;3806;52.270;10.544;2023-05-08T13:42:35;20.00;46.10
7530;DHT22;3806;52.270;10.544;2023-05-08T13:45:05;19.90;45.90
7530;DHT22;3806;52.270;10.544;2023-05-08T13:47:31;20.00;44.70
7530;DHT22;3806;52.270;10.544;2023-05-08T13:49:57;20.00;44.90
7530;DHT22;3806;52.270;10.544;2023-05-08T13:52:23;20.00;44.50
7530;DHT22;3806;52.270;10.544;2023-05-08T13:54:48;20.00;44.40
7530;DHT22;3806;52.270;10.544;2023-05-08T13:57:14;19.80;45.10
7530;DHT22;3806;52.270;10.544;2023-05-08T13:59:40;19.80;44.60
7530;DHT22;3806;52.270;10.544;2023-05-08T14:02:05;19.80;44.90
7530;DHT22;3806;52.270;10.544;2023-05-08T14:04:31;19.70;45.40
7530;DHT22;3806;52.270;10.544;2023-05-08T14:06:57;19.70;45.10
7530;DHT22;3806;52.270;10.544;2023-05-08T14:09:22;19.70;45.70
7530;DHT22;3806;52.270;10.544;2023-05-08T14:11:48;19.80;45.70
7530;DHT22;3806;52.270;10.544;2023-05-08T14:14:14;19.70;44.80
7530;DHT22;3806;52.270;10.544;2023-05-08T14:16:39;19.80;44.80
7530;DHT22;3806;52.270;10.544;2023-05-08T14:19:05;19.90;45.40
7530;DHT22;3806;52.270;10.544;2023-05-08T14:21:30;19.90;45.40
7530;DHT22;3806;52.270;10.544;2023-05-08T14:23:56;19.90;45.00
7530;DHT22;3806;52.270;10.544;2023-05-08T14:26:21;19.90;45.20
7530;DHT22;3806;52.270;10.544;2023-05-08T14:28:47;19.80;45.20
7530;DHT22;3806;52.270;10.544;2023-05-08T14:31:13;19.80;45.10
7530;DHT22;3806;52.270;10.544;2023-05-08T14:33:38;19.80;45.10
7530;DHT22;3806;52.270;10.544;2023-05-08T14:36:04;19.70;45.60
7530;DHT22;3806;52.270;10.544;2023-05-08T14:38:30;19.70;45.30
7530;DHT22;3806;52.270;10.544;2023-05-08T14:40:55;19.70;45.60
7530;DHT22;3806;52.270;10.544;2023-05-08T14:43:22;19.60;45.40
7530;DHT22;3806;52.270;10.544;2023-05-08T14:45:48;19.60;44.40
7530;DHT22;3806;52.270;10.544;2023-05-08T14:48:14;19.60;43.50
7530;DHT22;3806;52.270;10.544;2023-05-08T14:50:39;19.70;42.80
7530;DHT22;3806;52.270;10.544;2023-05-08T14:53:05;19.60;43.30
7530;DHT22;3806;52.270;10.544;2023-05-08T14:55:30;19.70;43.80
7530;DHT22;3806;52.270;10.544;2023-05-08T14:57:59;19.60;44.50
7530;DHT22;3806;52.270;10.544;2023-05-08T15:00:25;19.60;45.20
7530;DHT22;3806;52.270;10.544;2023-05-08T15:02:50;19.40;45.30
7530;DHT22;3806;52.270;10.544;2023-05-08T15:05:16;19.40;45.70
7530;DHT22;3806;52.270;10.544;2023-05-08T15:07:42;19.30;45.80
7530;DHT22;3806;52.270;10.544;2023-05-08T15:10:08;19.40;46.00
7530;DHT22;3806;52.270;10.544;2023-05-08T15:12:33;19.30;46.40
7530;DHT22;3806;52.270;10.544;2023-05-08T15:14:59;19.30;45.90
7530;DHT22;3806;52.270;10.544;2023-05-08T15:17:24;19.30;46.00
7530;DHT22;3806;52.270;10.544;2023-05-08T15:19:50;19.30;45.70
7530;DHT22;3806;52.270;10.544;2023-05-08T15:22:16;19.30;45.90
7530;DHT22;3806;52.270;10.544;2023-05-08T15:24:42;19.30;46.50
7530;DHT22;3806;52.270;10.544;2023-05-08T15:27:08;19.20;46.50
7530;DHT22;3806;52.270;10.544;2023-05-08T15:29:34;19.20;46.30
7530;DHT22;3806;52.270;10.544;2023-05-08T15:32:00;19.20;46.60
7530;DHT22;3806;52.270;10.544;2023-05-08T15:34:26;19.20;46.90
7530;DHT22;3806;52.270;10.544;2023-05-08T15:36:51;19.30;46.50
7530;DHT22;3806;52.270;10.544;2023-05-08T15:39:17;19.30;46.70
7530;DHT22;3806;52.270;10.544;2023-05-08T15:41:43;19.20;47.00
7530;DHT22;3806;52.270;10.544;2023-05-08T15:44:09;19.20;47.40
7530;DHT22;3806;52.270;10.544;2023-05-08T15:46:35;19.20;47.00
7530;DHT22;3806;52.270;10.544;2023-05-08T15:49:00;19.30;46.70
7530;DHT22;3806;52.270;10.544;2023-05-08T15:51:26;19.20;46.80
7530;DHT22;3806;52.270;10.544;2023-05-08T15:53:51;19.30;46.80
7530;DHT22;3806;52.270;10.544;2023-05-08T15:56:17;19.20;47.10
7530;DHT22;3806;52.270;10.544;2023-05-08T15:58:52;19.30;46.50
7530;DHT22;3806;52.270;10.544;2023-05-08T16:01:18;19.20;46.70
7530;DHT22;3806;52.270;10.544;2023-05-08T16:03:44;19.30;46.80
7530;DHT22;3806;52.270;10.544;2023-05-08T16:06:10;19.30;46.70
7530;DHT22;3806;52.270;10.544;2023-05-08T16:08:36;19.30;46.80
7530;DHT22;3806;52.270;10.544;2023-05-08T16:11:01;19.20;47.10
7530;DHT22;3806;52.270;10.544;2023-05-08T16:13:27;19.20;47.00
7530;DHT22;3806;52.270;10.544;2023-05-08T16:15:53;19.30;46.50
7530;DHT22;3806;52.270;10.544;2023-05-08T16:18:19;19.30;46.20
7530;DHT22;3806;52.270;10.544;2023-05-08T16:20:44;19.40;45.80
7530;DHT22;3806;52.270;10.544;2023-05-08T16:23:10;19.30;45.70
7530;DHT22;3806;52.270;10.544;2023-05-08T16:25:36;19.30;46.10
7530;DHT22;3806;52.270;10.544;2023-05-08T16:28:01;19.30;46.20
7530;DHT22;3806;52.270;10.544;2023-05-08T16:30:27;19.40;46.00
7530;DHT22;3806;52.270;10.544;2023-05-08T16:32:53;19.40;45.40